Lakki Marwat Weather



Lakki Marwat's Current Weather

Temprature 24.636o clear sky

clear sky

Rain: 0 %

Min Temprature24.636o
Max Temprature24.636o
Humidity40
Wind Speed1.46 m/h
Sun Rise05:40:28
Sun Set18:49:30
Current Time: 21-Apr-2019 05:23:21
Lat/Lon: 32.61, 70.91




Lakki Marwat's Geo Location



Lakki Marwat's Weather Forecast

Time Overall Temp Min Temp Max Temp Humidity Wind Speed Rain
21-Apr-2019 (Sun)
08:00:00 clear sky 27.550 27.549 27.550 34 1.49 m/h 0 %
11:00:00 clear sky 30.350 30.350 30.350 27 2.34 m/h 0 %
14:00:00 clear sky 32.650 32.650 32.650 23 3.23 m/h 0 %
17:00:00 clear sky 33.450 33.450 33.450 20 2.12 m/h 0 %
20:00:00 clear sky 31.150 31.150 31.150 27 0.51 m/h 0 %
23:00:00 clear sky 29.090 29.090 29.090 31 0.51 m/h 0 %
22-Apr-2019 (Mon)
02:00:00 clear sky 27.970 27.970 27.970 30 1.95 m/h 0 %
05:00:00 clear sky 26.324 26.324 26.324 35 2.35 m/h 0 %
08:00:00 clear sky 29.076 29.076 29.076 30 1.33 m/h 0 %
11:00:00 clear sky 32.120 32.120 32.120 23 2.49 m/h 0 %
14:00:00 clear sky 34.915 34.915 34.915 19 3.61 m/h 0 %
17:00:00 clear sky 35.431 35.431 35.431 17 1.78 m/h 0 %
20:00:00 clear sky 32.450 32.450 32.450 24 0.88 m/h 0 %
23:00:00 clear sky 30.996 30.996 30.996 25 1.83 m/h 0 %
23-Apr-2019 (Tue)
02:00:00 overcast clouds 29.877 29.877 29.877 27 2.35 m/h 0 %
05:00:00 overcast clouds 28.286 28.286 28.286 30 2.59 m/h 0 %
08:00:00 overcast clouds 30.267 30.267 30.267 26 1.01 m/h 0 %
11:00:00 overcast clouds 33.750 33.750 33.750 20 2.25 m/h 0 %
14:00:00 overcast clouds 36.250 36.250 36.250 16 3.75 m/h 0 %
17:00:00 broken clouds 37.450 37.450 37.450 14 3.53 m/h 0 %
20:00:00 scattered clouds 34.228 34.228 34.228 20 1.25 m/h 0 %
23:00:00 broken clouds 32.250 32.250 32.250 22 3.03 m/h 0 %
24-Apr-2019 (Wed)
02:00:00 scattered clouds 29.282 29.282 29.282 27 3.63 m/h 0 %
05:00:00 scattered clouds 27.694 27.694 27.694 31 3.91 m/h 0 %
08:00:00 broken clouds 30.750 30.750 30.750 26 5.13 m/h 0 %
11:00:00 broken clouds 33.609 33.609 33.609 21 4.04 m/h 0 %
14:00:00 overcast clouds 31.550 31.550 31.550 28 7.54 m/h 0 %
17:00:00 overcast clouds 30.250 30.250 30.250 32 8.38 m/h 0 %
20:00:00 light rain 25.955 25.955 25.955 48 1.18 m/h 231 %
23:00:00 broken clouds 25.345 25.345 25.345 48 3.79 m/h 0 %
25-Apr-2019 (Thu)
02:00:00 clear sky 24.650 24.650 24.650 51 2.52 m/h 0 %
05:00:00 clear sky 23.892 23.892 23.892 51 2.4 m/h 0 %
08:00:00 clear sky 27.420 27.420 27.420 33 3.07 m/h 0 %
11:00:00 clear sky 31.790 31.790 31.790 16 3.18 m/h 0 %
14:00:00 clear sky 34.450 34.450 34.450 12 2.99 m/h 0 %
17:00:00 clear sky 35.311 35.311 35.311 11 5.84 m/h 0 %
20:00:00 clear sky 31.225 31.225 31.225 21 6.41 m/h 0 %
23:00:00 clear sky 29.243 29.243 29.243 31 3.56 m/h 0 %
26-Apr-2019 (Fri)
02:00:00 clear sky 27.332 27.332 27.332 29 2.46 m/h 0 %
05:00:00 clear sky 25.926 25.926 25.926 19 3.32 m/h 0 %

Famous Cities (60)